createdAt,value
2022-12-28T00:01:24.188Z,7.10
2022-12-28T00:03:51.796Z,7.10
2022-12-28T00:06:20.345Z,7.10
2022-12-28T00:08:48.009Z,7.20
2022-12-28T00:11:27.547Z,7.20
2022-12-28T00:13:59.842Z,7.20
2022-12-28T00:16:35.808Z,7.20
2022-12-28T00:19:11.114Z,7.20
2022-12-28T00:21:38.284Z,7.20
2022-12-28T00:24:05.893Z,7.20
2022-12-28T00:26:35.128Z,7.20
2022-12-28T00:29:05.745Z,7.30
2022-12-28T00:31:36.140Z,7.30
2022-12-28T00:34:03.778Z,7.30
2022-12-28T00:37:08.789Z,7.30
2022-12-28T00:39:20.000Z,7.40
2022-12-28T00:41:47.023Z,7.40
2022-12-28T00:44:14.135Z,7.40
2022-12-28T00:46:41.455Z,7.40
2022-12-28T00:49:08.500Z,7.50
2022-12-28T00:51:35.583Z,7.50
2022-12-28T00:54:02.627Z,7.50
2022-12-28T00:56:29.563Z,7.50
2022-12-28T00:58:58.673Z,7.50
2022-12-28T01:01:27.166Z,7.60
2022-12-28T01:03:58.176Z,7.60
2022-12-28T01:06:25.775Z,7.70
2022-12-28T01:08:53.115Z,7.70
2022-12-28T01:11:25.998Z,7.70
2022-12-28T01:13:55.944Z,7.80
2022-12-28T01:16:25.519Z,7.80
2022-12-28T01:18:55.727Z,7.80
2022-12-28T01:21:24.852Z,7.80
2022-12-28T01:23:55.407Z,7.90
2022-12-28T01:26:22.823Z,7.90
2022-12-28T01:28:50.176Z,7.90
2022-12-28T01:31:18.668Z,7.90
2022-12-28T01:33:46.157Z,7.90
2022-12-28T01:36:19.043Z,8.00
2022-12-28T01:38:47.142Z,8.00
2022-12-28T01:41:17.781Z,8.00
2022-12-28T01:43:47.255Z,8.10
2022-12-28T01:46:21.752Z,8.10
2022-12-28T01:49:09.953Z,8.10
2022-12-28T01:51:51.524Z,8.10
2022-12-28T01:54:20.623Z,8.20
2022-12-28T01:56:48.387Z,8.20
2022-12-28T01:59:19.183Z,8.20
2022-12-28T02:01:46.574Z,8.20
2022-12-28T02:04:13.903Z,8.20
2022-12-28T02:06:41.047Z,8.20
2022-12-28T02:09:14.396Z,8.20
2022-12-28T02:11:41.514Z,8.20
2022-12-28T02:14:09.001Z,8.20
2022-12-28T02:16:36.313Z,8.20
2022-12-28T02:19:05.317Z,8.20
2022-12-28T02:22:07.729Z,8.20
2022-12-28T02:24:38.347Z,8.20
2022-12-28T02:27:43.833Z,8.20
2022-12-28T02:30:13.880Z,8.20
2022-12-28T02:32:50.021Z,8.20
2022-12-28T02:35:20.069Z,8.20
2022-12-28T02:37:54.940Z,8.20
2022-12-28T02:40:27.853Z,8.20
2022-12-28T02:42:57.637Z,8.20
2022-12-28T02:46:16.407Z,8.30
2022-12-28T02:49:04.189Z,8.20
2022-12-28T02:52:01.763Z,8.20
2022-12-28T02:54:53.618Z,8.30
2022-12-28T02:57:55.068Z,8.20
2022-12-28T03:00:26.468Z,8.20
2022-12-28T03:03:34.516Z,8.20
2022-12-28T03:06:26.993Z,8.30
2022-12-28T03:09:19.986Z,8.20
2022-12-28T03:12:10.686Z,8.30
2022-12-28T03:14:47.653Z,8.30
2022-12-28T03:17:34.594Z,8.20
2022-12-28T03:20:26.294Z,8.20
2022-12-28T03:23:15.940Z,8.20
2022-12-28T03:26:04.312Z,8.20
2022-12-28T03:29:00.324Z,8.20
2022-12-28T03:31:29.659Z,8.20
2022-12-28T03:34:08.223Z,8.20
2022-12-28T03:37:02.507Z,8.20
2022-12-28T03:39:43.893Z,8.30
2022-12-28T03:42:34.995Z,8.20
2022-12-28T03:45:14.558Z,8.30
2022-12-28T03:48:03.649Z,8.30
2022-12-28T03:50:34.511Z,8.30
2022-12-28T03:53:01.666Z,8.30
2022-12-28T03:55:30.620Z,8.30
2022-12-28T03:57:58.149Z,8.30
2022-12-28T04:00:28.377Z,8.30
2022-12-28T04:02:55.587Z,8.30
2022-12-28T04:05:23.671Z,8.30
2022-12-28T04:07:51.733Z,8.30
2022-12-28T04:10:18.682Z,8.40
2022-12-28T04:12:45.823Z,8.40
2022-12-28T04:15:29.661Z,8.40
2022-12-28T04:18:01.621Z,8.40
2022-12-28T04:20:28.761Z,8.40
2022-12-28T04:22:55.885Z,8.40
2022-12-28T04:25:23.013Z,8.40
2022-12-28T04:27:50.267Z,8.40
2022-12-28T04:30:35.889Z,8.40
2022-12-28T04:33:03.038Z,8.50
2022-12-28T04:35:31.838Z,8.50
2022-12-28T04:37:58.840Z,8.50
2022-12-28T04:40:25.793Z,8.50
2022-12-28T04:42:52.808Z,8.50
2022-12-28T04:45:22.241Z,8.50
2022-12-28T04:47:49.447Z,8.50
2022-12-28T04:50:16.562Z,8.60
2022-12-28T04:52:43.845Z,8.60
2022-12-28T04:55:32.497Z,8.60
2022-12-28T04:57:57.820Z,8.60
2022-12-28T05:00:24.795Z,8.60
2022-12-28T05:02:51.879Z,8.60
2022-12-28T05:05:18.882Z,8.70
2022-12-28T05:07:45.881Z,8.70
2022-12-28T05:10:12.810Z,8.70
2022-12-28T05:12:39.849Z,8.70
2022-12-28T05:15:07.572Z,8.70
2022-12-28T05:17:34.696Z,8.70
2022-12-28T05:20:02.069Z,8.70
2022-12-28T05:22:29.107Z,8.70
2022-12-28T05:24:56.120Z,8.70
2022-12-28T05:27:23.128Z,8.70
2022-12-28T05:29:50.052Z,8.80
2022-12-28T05:32:17.050Z,8.80
2022-12-28T05:34:45.299Z,8.80
2022-12-28T05:37:16.969Z,8.80
2022-12-28T05:39:47.193Z,8.80
2022-12-28T05:42:14.118Z,8.80
2022-12-28T05:44:41.299Z,8.80
2022-12-28T05:47:08.351Z,8.80
2022-12-28T05:49:35.331Z,8.80
2022-12-28T05:52:02.500Z,8.80
2022-12-28T05:54:29.526Z,8.80
2022-12-28T05:56:56.529Z,8.80
2022-12-28T05:59:23.642Z,8.80
2022-12-28T06:01:50.843Z,8.80
2022-12-28T06:04:19.877Z,8.80
2022-12-28T06:06:47.941Z,8.80
2022-12-28T06:09:15.395Z,8.80
2022-12-28T06:11:42.512Z,8.80
2022-12-28T06:14:09.752Z,8.80
2022-12-28T06:16:41.384Z,8.80
2022-12-28T06:19:11.093Z,8.80
2022-12-28T06:21:40.742Z,8.80
2022-12-28T06:24:10.907Z,8.80
2022-12-28T06:26:40.873Z,8.90
2022-12-28T06:29:09.652Z,8.80
2022-12-28T06:31:39.788Z,8.80
2022-12-28T06:34:10.903Z,8.90
2022-12-28T06:36:42.432Z,8.90
2022-12-28T06:39:11.644Z,8.90
2022-12-28T06:41:39.633Z,8.90
2022-12-28T06:44:08.327Z,8.90
2022-12-28T06:46:36.199Z,8.90
2022-12-28T06:49:03.258Z,8.90
2022-12-28T06:51:32.549Z,8.90
2022-12-28T06:53:59.510Z,8.90
2022-12-28T06:56:29.459Z,8.90
2022-12-28T06:59:02.744Z,8.90
2022-12-28T07:01:40.388Z,8.90
2022-12-28T07:04:09.314Z,8.90
2022-12-28T07:06:39.532Z,8.80
2022-12-28T07:09:09.457Z,8.80
2022-12-28T07:11:36.966Z,8.80
2022-12-28T07:14:04.405Z,8.90
2022-12-28T07:18:59.208Z,8.80
2022-12-28T07:21:28.877Z,8.80
2022-12-28T07:23:56.955Z,8.80
2022-12-28T07:26:27.229Z,8.80
2022-12-28T07:28:56.162Z,8.80
2022-12-28T07:31:28.961Z,8.80
2022-12-28T07:33:57.563Z,8.80
2022-12-28T07:36:25.583Z,8.80
2022-12-28T07:38:53.455Z,8.80
2022-12-28T07:41:22.966Z,8.80
2022-12-28T07:43:50.535Z,8.80
2022-12-28T07:46:22.723Z,8.80
2022-12-28T07:48:51.422Z,8.80
2022-12-28T07:51:25.949Z,8.80
2022-12-28T07:53:54.152Z,8.80
2022-12-28T07:56:23.842Z,8.80
2022-12-28T07:58:52.797Z,8.80
2022-12-28T08:01:21.819Z,8.80
2022-12-28T08:03:52.494Z,8.80
2022-12-28T08:06:20.840Z,8.80
2022-12-28T08:08:50.057Z,8.80
2022-12-28T08:11:19.813Z,8.70
2022-12-28T08:13:48.508Z,8.70
2022-12-28T08:16:20.315Z,8.80
2022-12-28T08:18:48.935Z,8.80
2022-12-28T08:21:34.109Z,8.80
2022-12-28T08:24:02.034Z,8.80
2022-12-28T08:26:32.014Z,8.80
2022-12-28T08:29:02.048Z,8.80
2022-12-28T08:31:32.285Z,8.80
2022-12-28T08:34:00.919Z,8.80
2022-12-28T08:36:28.514Z,8.80
2022-12-28T08:38:55.928Z,8.80
2022-12-28T08:41:25.565Z,8.80
2022-12-28T08:43:53.654Z,8.90
2022-12-28T08:46:29.115Z,8.80
2022-12-28T08:48:58.513Z,8.90
2022-12-28T08:51:27.939Z,8.90
2022-12-28T08:53:54.937Z,8.90
2022-12-28T08:56:24.930Z,8.80
2022-12-28T08:58:52.536Z,8.90
2022-12-28T09:01:27.213Z,8.90
2022-12-28T09:03:56.425Z,8.90
2022-12-28T09:06:29.968Z,8.90
2022-12-28T09:09:06.161Z,8.90
2022-12-28T09:11:35.813Z,8.90
2022-12-28T09:14:09.213Z,8.90
2022-12-28T09:16:37.545Z,8.90
2022-12-28T09:19:07.909Z,9.00
2022-12-28T09:21:37.856Z,9.00
2022-12-28T09:24:05.716Z,9.00
2022-12-28T09:26:36.123Z,9.00
2022-12-28T09:29:05.598Z,9.00
2022-12-28T09:31:35.902Z,9.00
2022-12-28T09:36:55.211Z,9.10
2022-12-28T09:39:24.963Z,9.10
2022-12-28T09:41:55.257Z,9.10
2022-12-28T09:44:30.979Z,9.20
2022-12-28T09:47:12.413Z,9.10
2022-12-28T09:49:47.540Z,9.20
2022-12-28T09:52:14.470Z,9.20
2022-12-28T09:54:42.343Z,9.20
2022-12-28T09:57:18.154Z,9.20
2022-12-28T09:59:47.514Z,9.20
2022-12-28T10:02:29.412Z,9.30
2022-12-28T10:04:56.801Z,9.30
2022-12-28T10:07:24.148Z,9.30
2022-12-28T10:09:51.499Z,9.30
2022-12-28T10:12:22.670Z,9.40
2022-12-28T10:14:49.996Z,9.40
2022-12-28T10:17:20.743Z,9.40
2022-12-28T10:19:48.670Z,9.40
2022-12-28T10:22:19.673Z,9.40
2022-12-28T10:24:47.569Z,9.40
2022-12-28T10:27:29.388Z,9.40
2022-12-28T10:29:59.268Z,9.50
2022-12-28T10:32:26.260Z,9.50
2022-12-28T10:35:03.423Z,9.50
2022-12-28T10:37:37.807Z,9.50
2022-12-28T10:40:26.629Z,9.50
2022-12-28T10:42:55.772Z,9.50
2022-12-28T10:45:36.085Z,9.50
2022-12-28T10:48:13.237Z,9.50
2022-12-28T10:50:56.364Z,9.50
2022-12-28T10:53:41.538Z,9.60
2022-12-28T10:56:14.275Z,9.60
2022-12-28T10:58:42.676Z,9.60
2022-12-28T11:01:12.800Z,9.60
2022-12-28T11:03:42.988Z,9.60
2022-12-28T11:06:13.361Z,9.60
2022-12-28T11:08:42.001Z,9.60
2022-12-28T11:11:18.898Z,9.70
2022-12-28T11:13:50.105Z,9.70
2022-12-28T11:16:17.137Z,9.70
2022-12-28T11:18:44.216Z,9.70
2022-12-28T11:21:19.507Z,9.70
2022-12-28T11:23:51.190Z,9.80
2022-12-28T11:26:19.575Z,9.80
2022-12-28T11:28:50.045Z,9.80
2022-12-28T11:31:26.284Z,9.70
2022-12-28T11:33:57.982Z,9.80
2022-12-28T11:36:27.489Z,9.90
2022-12-28T11:38:56.747Z,9.90
2022-12-28T11:41:25.537Z,9.90
2022-12-28T11:44:06.349Z,9.90
2022-12-28T11:46:38.977Z,9.90
2022-12-28T11:49:35.543Z,9.90
2022-12-28T11:52:17.818Z,9.90
2022-12-28T11:54:52.858Z,9.90
2022-12-28T11:57:39.245Z,9.90
2022-12-28T12:00:23.193Z,9.90
2022-12-28T12:02:57.875Z,9.90
2022-12-28T12:05:37.182Z,9.90
2022-12-28T12:08:16.789Z,9.90
2022-12-28T12:10:47.641Z,10.00
2022-12-28T12:13:26.766Z,10.00
2022-12-28T12:16:05.374Z,10.00
2022-12-28T12:18:45.982Z,10.00
2022-12-28T12:21:28.393Z,10.00
2022-12-28T12:24:13.540Z,10.00
2022-12-28T12:26:49.097Z,10.00
2022-12-28T12:29:33.356Z,10.00
2022-12-28T12:32:17.542Z,10.00
2022-12-28T12:34:56.570Z,10.00
2022-12-28T12:37:37.136Z,9.90
2022-12-28T12:40:09.887Z,10.00
2022-12-28T12:42:55.633Z,10.00
2022-12-28T12:45:47.488Z,10.00
2022-12-28T12:48:39.747Z,10.00
2022-12-28T12:51:12.710Z,10.00
2022-12-28T12:53:55.016Z,10.00
2022-12-28T12:56:31.259Z,10.00
2022-12-28T12:59:29.245Z,10.00
2022-12-28T13:02:09.293Z,10.00
2022-12-28T13:04:36.561Z,10.00
2022-12-28T13:07:06.386Z,10.00
2022-12-28T13:09:36.088Z,9.90
2022-12-28T13:12:03.742Z,10.00
2022-12-28T13:14:30.853Z,9.90
2022-12-28T13:16:59.578Z,9.90
2022-12-28T13:19:28.843Z,9.90
2022-12-28T13:21:59.422Z,9.90
2022-12-28T13:24:34.690Z,9.90
2022-12-28T13:27:07.629Z,9.90
2022-12-28T13:29:40.086Z,9.90
2022-12-28T13:32:37.565Z,9.90
2022-12-28T13:35:37.264Z,9.90
2022-12-28T13:38:11.193Z,9.80
2022-12-28T13:40:39.370Z,9.80
2022-12-28T13:43:43.596Z,9.70
2022-12-28T13:46:13.761Z,9.70
2022-12-28T13:48:46.889Z,9.70
2022-12-28T13:51:17.485Z,9.70
2022-12-28T13:53:50.301Z,9.70
2022-12-28T13:56:19.690Z,9.60
2022-12-28T13:58:52.547Z,9.60
2022-12-28T14:01:36.250Z,9.60
2022-12-28T14:04:50.672Z,9.60
2022-12-28T14:06:55.149Z,9.60
2022-12-28T14:09:22.504Z,9.60
2022-12-28T14:11:50.812Z,9.60
2022-12-28T14:14:18.389Z,9.60
2022-12-28T14:16:46.026Z,9.60
2022-12-28T14:19:13.449Z,9.60
2022-12-28T14:21:45.235Z,9.60
2022-12-28T14:24:15.184Z,9.50
2022-12-28T14:26:58.064Z,9.50
2022-12-28T14:29:30.951Z,9.50
2022-12-28T14:31:59.788Z,9.50
2022-12-28T14:34:30.743Z,9.50
2022-12-28T14:36:59.297Z,9.50
2022-12-28T14:39:32.258Z,9.50
2022-12-28T14:41:59.962Z,9.60
2022-12-28T14:44:28.513Z,9.50
2022-12-28T14:46:55.879Z,9.50
2022-12-28T14:49:28.766Z,9.60
2022-12-28T14:51:56.577Z,9.50
2022-12-28T14:54:28.240Z,9.50
2022-12-28T14:57:02.966Z,9.50
2022-12-28T14:59:36.905Z,9.50
2022-12-28T15:02:04.174Z,9.50
2022-12-28T15:04:38.973Z,9.50
2022-12-28T15:07:08.648Z,9.50
2022-12-28T15:09:35.677Z,9.50
2022-12-28T15:12:17.911Z,9.50
2022-12-28T15:14:45.142Z,9.50
2022-12-28T15:17:12.561Z,9.50
2022-12-28T15:19:41.281Z,9.50
2022-12-28T15:22:08.801Z,9.50
2022-12-28T15:24:36.312Z,9.50
2022-12-28T15:27:04.024Z,9.50
2022-12-28T15:30:03.928Z,9.50
2022-12-28T15:32:18.907Z,9.50
2022-12-28T15:34:45.849Z,9.50
2022-12-28T15:37:12.831Z,9.50
2022-12-28T15:39:39.807Z,9.50
2022-12-28T15:42:06.808Z,9.50
2022-12-28T15:44:33.763Z,9.50
2022-12-28T15:47:00.756Z,9.50
2022-12-28T15:49:27.747Z,9.50
2022-12-28T15:51:54.765Z,9.50
2022-12-28T15:54:21.767Z,9.50
2022-12-28T15:56:56.000Z,9.50
2022-12-28T15:59:23.082Z,9.50
2022-12-28T16:01:50.206Z,9.50
2022-12-28T16:04:17.424Z,9.50
2022-12-28T16:06:45.320Z,9.60
2022-12-28T16:09:14.008Z,9.50
2022-12-28T16:11:41.576Z,9.60
2022-12-28T16:14:13.205Z,9.60
2022-12-28T16:16:41.016Z,9.60
2022-12-28T16:19:09.057Z,9.60
2022-12-28T16:21:36.396Z,9.70
2022-12-28T16:24:03.823Z,9.60
2022-12-28T16:26:30.996Z,9.70
2022-12-28T16:29:00.241Z,9.70
2022-12-28T16:31:28.648Z,9.70
2022-12-28T16:34:01.519Z,9.70
2022-12-28T16:36:29.185Z,9.70
2022-12-28T16:38:56.437Z,9.70
2022-12-28T16:41:25.017Z,9.70
2022-12-28T16:43:52.194Z,9.70
2022-12-28T16:46:19.511Z,9.80
2022-12-28T16:48:46.568Z,9.80
2022-12-28T16:51:13.599Z,9.80
2022-12-28T16:53:40.649Z,9.80
2022-12-28T16:56:07.850Z,9.80
2022-12-28T16:58:34.852Z,9.80
2022-12-28T17:01:08.005Z,9.90
2022-12-28T17:03:35.967Z,9.90
2022-12-28T17:06:03.196Z,9.90
2022-12-28T17:08:30.620Z,9.90
2022-12-28T17:10:57.945Z,9.90
2022-12-28T17:13:24.921Z,9.90
2022-12-28T17:15:51.968Z,9.90
2022-12-28T17:18:19.053Z,9.90
2022-12-28T17:20:46.333Z,9.90
2022-12-28T17:23:13.527Z,9.90
2022-12-28T17:25:40.469Z,9.90
2022-12-28T17:28:07.501Z,10.00
2022-12-28T17:30:34.973Z,10.00
2022-12-28T17:33:02.029Z,10.00
2022-12-28T17:35:28.989Z,10.10
2022-12-28T17:37:55.995Z,10.00
2022-12-28T17:40:23.161Z,10.10
2022-12-28T17:42:50.169Z,10.00
2022-12-28T17:45:17.168Z,10.00
2022-12-28T17:47:44.409Z,10.10
2022-12-28T17:50:11.469Z,10.10
2022-12-28T17:52:38.567Z,10.10
2022-12-28T17:55:05.835Z,10.10
2022-12-28T17:57:38.479Z,10.10
2022-12-28T18:00:06.808Z,10.10
2022-12-28T18:02:39.553Z,10.10
2022-12-28T18:05:07.360Z,10.10
2022-12-28T18:07:34.983Z,10.20
2022-12-28T18:10:01.993Z,10.10
2022-12-28T18:12:29.086Z,10.20
2022-12-28T18:14:56.056Z,10.20
2022-12-28T18:17:23.375Z,10.20
2022-12-28T18:19:53.533Z,10.20
2022-12-28T18:22:23.018Z,10.20
2022-12-28T18:24:50.840Z,10.20
2022-12-28T18:27:18.127Z,10.20
2022-12-28T18:29:45.273Z,10.20
2022-12-28T18:32:12.334Z,10.20
2022-12-28T18:34:39.420Z,10.30
2022-12-28T18:37:06.505Z,10.30
2022-12-28T18:39:34.419Z,10.30
2022-12-28T18:42:03.069Z,10.30
2022-12-28T18:44:30.100Z,10.30
2022-12-28T18:46:57.152Z,10.30
2022-12-28T18:49:24.747Z,10.40
2022-12-28T18:51:51.781Z,10.40
2022-12-28T18:54:18.824Z,10.40
2022-12-28T18:56:45.935Z,10.40
2022-12-28T18:59:13.000Z,10.40
2022-12-28T19:02:05.870Z,10.40
2022-12-28T19:04:29.587Z,10.40
2022-12-28T19:06:56.634Z,10.40
2022-12-28T19:09:23.600Z,10.40
2022-12-28T19:11:52.774Z,10.40
2022-12-28T19:14:20.107Z,10.50
2022-12-28T19:16:47.174Z,10.50
2022-12-28T19:19:17.054Z,10.50
2022-12-28T19:21:44.708Z,10.50
2022-12-28T19:24:17.238Z,10.50
2022-12-28T19:26:45.627Z,10.50
2022-12-28T19:29:13.574Z,10.60
2022-12-28T19:31:40.655Z,10.60
2022-12-28T19:34:07.704Z,10.60
2022-12-28T19:36:34.675Z,10.60
2022-12-28T19:39:01.748Z,10.70
2022-12-28T19:41:28.788Z,10.70
2022-12-28T19:43:55.780Z,10.70
2022-12-28T19:46:31.146Z,10.70
2022-12-28T19:48:59.586Z,10.70
2022-12-28T19:51:30.582Z,10.70
2022-12-28T19:53:59.295Z,10.70
2022-12-28T19:56:26.430Z,10.70
2022-12-28T19:58:57.849Z,10.80
2022-12-28T20:01:28.285Z,10.80
2022-12-28T20:03:55.858Z,10.80
2022-12-28T20:06:27.781Z,10.80
2022-12-28T20:08:57.769Z,10.80
2022-12-28T20:11:24.858Z,10.80
2022-12-28T20:14:00.724Z,10.80
2022-12-28T20:16:29.963Z,10.80
2022-12-28T20:18:57.190Z,10.80
2022-12-28T20:21:26.059Z,10.80
2022-12-28T20:23:54.587Z,10.80
2022-12-28T20:26:23.327Z,10.80
2022-12-28T20:28:51.036Z,10.80
2022-12-28T20:31:18.751Z,10.70
2022-12-28T20:33:46.597Z,10.80
2022-12-28T20:36:16.244Z,10.80
2022-12-28T20:38:44.030Z,10.80
2022-12-28T20:41:52.261Z,10.70
2022-12-28T20:44:29.097Z,10.70
2022-12-28T20:46:57.195Z,10.70
2022-12-28T20:49:26.300Z,10.70
2022-12-28T20:51:53.728Z,10.70
2022-12-28T20:54:21.409Z,10.70
2022-12-28T20:56:54.204Z,10.70
2022-12-28T20:59:22.180Z,10.70
2022-12-28T21:01:49.240Z,10.70
2022-12-28T21:04:16.493Z,10.70
2022-12-28T21:06:43.605Z,10.80
2022-12-28T21:09:10.637Z,10.80
2022-12-28T21:11:37.622Z,10.80
2022-12-28T21:14:04.661Z,10.80
2022-12-28T21:16:31.673Z,10.80
2022-12-28T21:18:58.784Z,10.80
2022-12-28T21:21:25.809Z,10.80
2022-12-28T21:23:52.978Z,10.80
2022-12-28T21:26:21.724Z,10.80
2022-12-28T21:28:48.782Z,10.80
2022-12-28T21:31:17.223Z,10.80
2022-12-28T21:33:44.343Z,10.80
2022-12-28T21:36:19.112Z,10.80
2022-12-28T21:38:48.001Z,10.80
2022-12-28T21:41:40.992Z,10.80
2022-12-28T21:44:10.800Z,10.80
2022-12-28T21:46:37.893Z,10.80
2022-12-28T21:49:05.605Z,10.80
2022-12-28T21:51:37.461Z,10.70
2022-12-28T21:54:05.852Z,10.70
2022-12-28T21:56:34.866Z,10.80
2022-12-28T21:59:01.974Z,10.80
2022-12-28T22:01:47.795Z,10.80
2022-12-28T22:04:36.869Z,10.80
2022-12-28T22:07:05.182Z,10.80
2022-12-28T22:09:52.561Z,10.80
2022-12-28T22:12:35.861Z,10.80
2022-12-28T22:15:32.034Z,10.90
2022-12-28T22:18:07.923Z,10.90
2022-12-28T22:20:37.136Z,10.90
2022-12-28T22:23:06.310Z,10.90
2022-12-28T22:25:33.821Z,10.90
2022-12-28T22:28:00.874Z,10.90
2022-12-28T22:30:28.266Z,10.90
2022-12-28T22:32:55.501Z,10.90
2022-12-28T22:35:22.936Z,10.90
2022-12-28T22:37:50.561Z,11.00
2022-12-28T22:40:18.089Z,11.00
2022-12-28T22:42:47.492Z,11.00
2022-12-28T22:45:16.824Z,11.00
2022-12-28T22:47:44.369Z,10.90
2022-12-28T22:50:13.716Z,11.00
2022-12-28T22:52:41.326Z,11.00
2022-12-28T22:55:09.363Z,11.00
2022-12-28T22:57:36.661Z,10.90
2022-12-28T23:00:06.888Z,10.90
2022-12-28T23:02:34.332Z,10.90
2022-12-28T23:05:01.397Z,10.90
2022-12-28T23:07:28.387Z,10.90
2022-12-28T23:09:55.384Z,10.90
2022-12-28T23:12:22.451Z,10.90
2022-12-28T23:15:21.510Z,10.90
2022-12-28T23:17:49.442Z,10.90
2022-12-28T23:20:35.670Z,10.90
2022-12-28T23:23:21.272Z,10.90
2022-12-28T23:26:06.826Z,10.90
2022-12-28T23:28:35.900Z,10.90
2022-12-28T23:31:03.006Z,10.90
2022-12-28T23:33:30.277Z,10.90
2022-12-28T23:36:02.464Z,10.90
2022-12-28T23:38:31.674Z,10.90
2022-12-28T23:41:16.911Z,10.90
2022-12-28T23:43:43.917Z,10.90
2022-12-28T23:46:10.919Z,10.90
2022-12-28T23:48:37.977Z,10.90
2022-12-28T23:51:08.440Z,10.90
2022-12-28T23:53:35.907Z,10.90
2022-12-28T23:56:02.835Z,10.90
2022-12-28T23:58:29.908Z,10.90
